Time;durP1;ratioP1;P1;durP2;ratioP2;P2;SDS_P1;SDS_P2;PMS_P1;PMS_P2;Temp;Humidity;BMP_temperature;BMP_pressure;BME280_temperature;BME280_humidity;BME280_pressure;Samples;Min_cycle;Max_cycle;Signal;HPM_P1;HPM_P2
2022/02/24 00:02:44;;;;;;;1.65;0.88;;;18.70;46.20;;;;;;7786037;22;20030;-66
2022/02/24 00:05:44;;;;;;;1.98;0.80;;;18.70;46.20;;;;;;7785219;22;20086;-66
2022/02/24 00:08:45;;;;;;;1.98;1.10;;;18.70;46.30;;;;;;7785948;22;20339;-67
2022/02/24 00:11:45;;;;;;;2.83;1.30;;;18.70;46.30;;;;;;7785570;22;20010;-67
2022/02/24 00:14:46;;;;;;;2.67;1.08;;;18.70;46.20;;;;;;7785402;22;20003;-67
2022/02/24 00:17:47;;;;;;;1.63;1.02;;;18.70;46.30;;;;;;7785274;22;20427;-67
2022/02/24 00:20:47;;;;;;;1.65;0.90;;;18.70;46.60;;;;;;7785505;22;20007;-67
2022/02/24 00:23:48;;;;;;;1.05;0.80;;;18.70;46.20;;;;;;7785766;22;20419;-66
2022/02/24 00:26:49;;;;;;;1.38;0.75;;;18.70;46.30;;;;;;7785153;22;20012;-67
2022/02/24 00:29:49;;;;;;;1.13;0.80;;;18.70;46.20;;;;;;7785175;22;20377;-67
2022/02/24 00:32:50;;;;;;;1.27;0.80;;;18.70;46.30;;;;;;7785353;22;20007;-67
2022/02/24 00:35:52;;;;;;;1.23;0.80;;;18.70;46.20;;;;;;7784680;22;20041;-67
2022/02/24 00:38:52;;;;;;;1.60;0.82;;;18.70;46.30;;;;;;7785612;22;20691;-66
2022/02/24 00:41:53;;;;;;;1.30;0.98;;;18.70;46.30;;;;;;7785323;22;20004;-67
2022/02/24 00:44:54;;;;;;;1.63;0.75;;;18.70;46.30;;;;;;7785596;22;20113;-66
2022/02/24 00:47:54;;;;;;;1.35;0.70;;;18.70;46.30;;;;;;7785359;22;20007;-67
2022/02/24 00:50:55;;;;;;;1.02;0.70;;;18.70;46.30;;;;;;7785499;22;20281;-67
2022/02/24 00:53:56;;;;;;;1.65;0.82;;;18.70;46.30;;;;;;7785162;22;20438;-67
2022/02/24 00:56:56;;;;;;;1.40;0.80;;;18.70;46.30;;;;;;7785438;22;20312;-67
2022/02/24 00:59:56;;;;;;;1.50;0.82;;;18.60;46.20;;;;;;7785180;22;20004;-67
2022/02/24 01:02:57;;;;;;;1.88;0.90;;;18.70;46.30;;;;;;7775570;22;20003;-67
2022/02/24 01:05:57;;;;;;;1.75;0.80;;;18.70;46.30;;;;;;7784618;22;20047;-66
2022/02/24 01:08:58;;;;;;;1.95;0.90;;;18.70;46.30;;;;;;7785203;22;20002;-67
2022/02/24 01:11:58;;;;;;;1.90;0.93;;;18.60;46.20;;;;;;7785464;22;20053;-67
2022/02/24 01:15:06;;;;;;;2.53;0.90;;;18.70;46.30;;;;;;7785748;22;20394;-67
2022/02/24 01:18:07;;;;;;;1.30;0.90;;;18.60;46.30;;;;;;7784746;22;20087;-65
2022/02/24 01:21:07;;;;;;;0.80;0.60;;;18.60;46.30;;;;;;7785459;22;20003;-65
2022/02/24 01:24:08;;;;;;;1.67;0.77;;;18.60;46.30;;;;;;7785002;22;20116;-67
2022/02/24 01:27:08;;;;;;;0.85;0.70;;;18.70;46.30;;;;;;7785148;22;20057;-66
2022/02/24 01:30:09;;;;;;;1.58;0.93;;;18.60;46.30;;;;;;7785054;22;20427;-65
2022/02/24 01:33:09;;;;;;;0.95;0.70;;;18.60;46.30;;;;;;7784768;22;20071;-66
2022/02/24 01:36:10;;;;;;;1.20;0.70;;;18.60;46.30;;;;;;7784750;22;20338;-67
2022/02/24 01:39:11;;;;;;;1.77;0.70;;;18.60;46.30;;;;;;7786500;22;20011;-66
2022/02/24 01:42:11;;;;;;;1.55;0.88;;;18.60;46.30;;;;;;7787655;22;20008;-67
2022/02/24 01:45:13;;;;;;;1.50;0.63;;;18.60;46.40;;;;;;7787868;22;20011;-65
2022/02/24 01:48:14;;;;;;;1.00;0.80;;;18.60;46.40;;;;;;7787119;22;20079;-67
2022/02/24 01:51:15;;;;;;;1.08;0.70;;;18.60;46.30;;;;;;7760427;22;20007;-67
2022/02/24 01:54:16;;;;;;;0.63;0.55;;;18.60;46.30;;;;;;7787018;22;20103;-66
2022/02/24 01:57:16;;;;;;;1.10;0.70;;;18.60;46.30;;;;;;7787291;22;20007;-65
2022/02/24 02:00:17;;;;;;;3.42;0.80;;;18.60;46.40;;;;;;7787257;22;20419;-67
2022/02/24 02:03:18;;;;;;;1.38;0.75;;;18.60;46.30;;;;;;7787474;22;20000;-67
2022/02/24 02:06:19;;;;;;;1.55;0.75;;;18.60;46.40;;;;;;7786814;22;20015;-67
2022/02/24 02:09:20;;;;;;;1.98;0.88;;;18.60;46.30;;;;;;7786892;22;20427;-66
2022/02/24 02:12:21;;;;;;;1.02;0.60;;;18.60;46.40;;;;;;7787657;22;20004;-65
2022/02/24 02:15:22;;;;;;;1.58;0.95;;;18.60;46.30;;;;;;7786655;22;20031;-66
2022/02/24 02:18:23;;;;;;;2.22;1.00;;;18.60;46.40;;;;;;7787412;22;20015;-65
2022/02/24 02:21:23;;;;;;;1.77;0.90;;;18.60;46.40;;;;;;7786590;22;20419;-65
2022/02/24 02:24:24;;;;;;;2.38;0.98;;;18.60;46.40;;;;;;7787086;22;20074;-66
2022/02/24 02:27:25;;;;;;;1.10;0.70;;;18.60;46.40;;;;;;7787177;22;20027;-66
2022/02/24 02:30:25;;;;;;;1.13;0.80;;;18.60;46.40;;;;;;7786912;22;20354;-66
2022/02/24 02:33:26;;;;;;;2.63;1.00;;;18.60;46.40;;;;;;7786689;22;20416;-67
2022/02/24 02:36:26;;;;;;;1.73;0.80;;;18.60;47.20;;;;;;7786118;22;20023;-67
2022/02/24 02:39:27;;;;;;;1.70;0.80;;;18.60;46.40;;;;;;7786424;22;20442;-67
2022/02/24 02:42:27;;;;;;;1.60;0.77;;;18.60;46.40;;;;;;7786697;22;20016;-66
2022/02/24 02:45:28;;;;;;;1.02;0.60;;;18.60;46.50;;;;;;7786675;22;20006;-67
2022/02/24 02:48:28;;;;;;;1.23;0.60;;;18.60;46.40;;;;;;7786430;22;20480;-67
2022/02/24 02:51:29;;;;;;;1.45;0.80;;;18.60;46.50;;;;;;7786658;22;20041;-67
2022/02/24 02:54:30;;;;;;;1.17;0.70;;;18.60;46.40;;;;;;7786326;22;20000;-67
2022/02/24 02:57:30;;;;;;;1.75;0.77;;;18.60;46.40;;;;;;7786387;22;20019;-67
2022/02/24 03:00:31;;;;;;;1.40;0.80;;;18.60;46.40;;;;;;7786234;22;20007;-66
2022/02/24 03:03:32;;;;;;;1.33;0.70;;;18.60;46.40;;;;;;7786653;22;20031;-67
2022/02/24 03:06:32;;;;;;;1.33;0.85;;;18.60;46.50;;;;;;7786482;22;20026;-67
2022/02/24 03:09:33;;;;;;;1.60;0.85;;;18.60;46.50;;;;;;7786115;22;20008;-67
2022/02/24 03:12:35;;;;;;;1.25;0.60;;;18.60;46.50;;;;;;7786368;22;20011;-66
2022/02/24 03:15:36;;;;;;;1.50;0.70;;;18.60;46.40;;;;;;7785758;22;20035;-66
2022/02/24 03:18:36;;;;;;;1.55;0.68;;;18.60;46.40;;;;;;7786552;22;20486;-67
2022/02/24 03:21:37;;;;;;;1.38;0.75;;;18.60;46.40;;;;;;7786106;22;20418;-67
2022/02/24 03:24:38;;;;;;;1.38;0.73;;;18.60;46.50;;;;;;7786654;22;20338;-66
2022/02/24 03:27:39;;;;;;;2.17;1.00;;;18.60;46.50;;;;;;7786089;22;20635;-67
2022/02/24 03:30:40;;;;;;;1.38;0.65;;;18.60;46.50;;;;;;7786152;22;20014;-67
2022/02/24 03:33:41;;;;;;;2.70;0.90;;;18.60;46.50;;;;;;7785800;22;20411;-67
2022/02/24 03:36:41;;;;;;;1.55;0.80;;;18.60;46.50;;;;;;7785688;22;20065;-67
2022/02/24 03:39:42;;;;;;;1.50;0.73;;;18.60;46.50;;;;;;7785970;22;20003;-67
2022/02/24 03:42:43;;;;;;;1.00;0.90;;;18.60;46.40;;;;;;7785660;22;20035;-67
2022/02/24 03:45:44;;;;;;;0.80;0.80;;;18.60;46.50;;;;;;7785675;22;20007;-67
2022/02/24 03:48:44;;;;;;;1.00;0.65;;;18.60;46.50;;;;;;7786021;22;20328;-67
2022/02/24 03:51:45;;;;;;;1.55;0.77;;;18.60;46.50;;;;;;7785742;22;20003;-66
2022/02/24 03:54:46;;;;;;;1.52;0.70;;;18.60;46.50;;;;;;7786477;22;20004;-66
2022/02/24 03:57:47;;;;;;;0.90;0.68;;;18.60;46.50;;;;;;7785813;22;20050;-67
2022/02/24 04:00:48;;;;;;;0.82;0.63;;;18.60;46.60;;;;;;7786046;22;20000;-67
2022/02/24 04:03:48;;;;;;;2.20;0.77;;;18.60;46.50;;;;;;7785753;22;20010;-67
2022/02/24 04:06:49;;;;;;;1.13;0.60;;;18.60;46.50;;;;;;7785390;22;20015;-67
2022/02/24 04:09:49;;;;;;;1.10;0.70;;;18.60;46.50;;;;;;7785896;22;20049;-67
2022/02/24 04:12:50;;;;;;;1.00;0.60;;;18.60;46.50;;;;;;7786103;22;20008;-67
2022/02/24 04:15:50;;;;;;;2.65;0.70;;;18.60;46.50;;;;;;7786015;22;20011;-67
2022/02/24 04:18:51;;;;;;;1.23;0.70;;;18.60;46.50;;;;;;7785622;22;20322;-67
2022/02/24 04:21:51;;;;;;;1.10;0.70;;;18.60;46.40;;;;;;7785356;22;20015;-66
2022/02/24 04:24:52;;;;;;;1.08;0.70;;;18.60;46.50;;;;;;7785807;22;20407;-66
2022/02/24 04:27:52;;;;;;;0.80;0.70;;;18.60;46.50;;;;;;7785593;22;20004;-66
2022/02/24 04:30:53;;;;;;;0.70;0.60;;;18.60;46.60;;;;;;7785559;22;20011;-66
2022/02/24 04:33:55;;;;;;;0.90;0.70;;;18.60;46.50;;;;;;7784734;22;20402;-66
2022/02/24 04:36:55;;;;;;;0.90;0.57;;;18.60;46.50;;;;;;7784863;22;20095;-66
2022/02/24 04:39:56;;;;;;;1.20;0.65;;;18.60;46.50;;;;;;7786011;22;20312;-67
2022/02/24 04:42:56;;;;;;;0.65;0.50;;;18.60;46.60;;;;;;7784939;22;20500;-67
2022/02/24 04:45:57;;;;;;;1.67;0.80;;;18.60;46.60;;;;;;7785837;22;20442;-66
2022/02/24 04:48:59;;;;;;;0.73;0.52;;;18.60;46.60;;;;;;7785439;22;20435;-67
2022/02/24 04:51:59;;;;;;;1.10;0.60;;;18.60;46.60;;;;;;7785130;22;20510;-64
2022/02/24 04:55:00;;;;;;;0.90;0.70;;;18.60;46.60;;;;;;7785406;22;20008;-66
2022/02/24 04:58:00;;;;;;;2.40;0.95;;;18.60;46.60;;;;;;7785048;22;20086;-66
2022/02/24 05:01:01;;;;;;;1.35;0.80;;;18.60;46.60;;;;;;7784807;22;20078;-66
2022/02/24 05:04:01;;;;;;;3.08;1.08;;;18.60;46.60;;;;;;7785382;22;20007;-67
2022/02/24 05:07:02;;;;;;;1.23;0.80;;;18.60;46.60;;;;;;7785190;22;20042;-67
2022/02/24 05:10:04;;;;;;;0.70;0.57;;;18.60;46.60;;;;;;7785576;22;20092;-66
2022/02/24 05:13:04;;;;;;;1.65;0.70;;;18.60;46.60;;;;;;7786330;22;20030;-67
2022/02/24 05:16:05;;;;;;;1.48;0.65;;;18.60;46.50;;;;;;7787384;22;20035;-66
2022/02/24 05:19:05;;;;;;;1.35;0.70;;;18.60;46.50;;;;;;7788290;22;20378;-66
2022/02/24 05:22:06;;;;;;;1.52;0.85;;;18.60;46.50;;;;;;7787827;22;20292;-67
2022/02/24 05:25:08;;;;;;;2.00;0.73;;;18.60;46.50;;;;;;7787869;22;20011;-66
2022/02/24 05:28:10;;;;;;;1.55;0.85;;;18.60;46.50;;;;;;7787739;22;20006;-67
2022/02/24 05:31:10;;;;;;;2.00;1.05;;;18.60;46.50;;;;;;7787984;22;20358;-66
2022/02/24 05:34:11;;;;;;;1.58;0.60;;;18.60;46.50;;;;;;7787385;22;20079;-66
2022/02/24 05:37:11;;;;;;;1.27;0.65;;;18.60;46.60;;;;;;7787726;22;20065;-66
2022/02/24 05:40:12;;;;;;;1.05;0.47;;;18.60;46.40;;;;;;7787749;22;20305;-67
2022/02/24 05:43:12;;;;;;;1.92;0.70;;;18.60;46.50;;;;;;7787026;22;20008;-67
2022/02/24 05:46:13;;;;;;;1.00;0.70;;;18.60;46.50;;;;;;7787082;22;20011;-67
2022/02/24 05:49:16;;;;;;;0.75;0.60;;;18.60;46.50;;;;;;7787437;22;20004;-67
2022/02/24 05:52:17;;;;;;;1.38;0.70;;;18.60;46.50;;;;;;7788263;22;20003;-66
2022/02/24 05:55:17;;;;;;;0.70;0.63;;;18.60;46.50;;;;;;7787128;22;20482;-66
2022/02/24 05:58:18;;;;;;;0.75;0.50;;;18.60;46.50;;;;;;7787230;22;20008;-67
2022/02/24 06:01:18;;;;;;;1.48;0.80;;;18.60;46.50;;;;;;7786392;22;20102;-67
2022/02/24 06:04:19;;;;;;;1.38;0.63;;;18.60;46.50;;;;;;7787089;22;20069;-66
2022/02/24 06:07:19;;;;;;;1.30;0.70;;;18.60;46.40;;;;;;7787405;22;20437;-65
2022/02/24 06:10:20;;;;;;;1.80;0.80;;;18.60;46.50;;;;;;7787724;22;20007;-67
2022/02/24 06:13:21;;;;;;;1.63;0.77;;;18.60;46.50;;;;;;7787154;22;20004;-67
2022/02/24 06:16:21;;;;;;;0.88;0.60;;;18.60;46.50;;;;;;7786869;22;20343;-66
2022/02/24 06:19:22;;;;;;;1.67;0.70;;;18.60;46.40;;;;;;7787091;22;20008;-67
2022/02/24 06:22:22;;;;;;;2.00;0.82;;;18.60;46.50;;;;;;7787053;22;20011;-66
2022/02/24 06:25:23;;;;;;;1.65;0.63;;;18.60;46.40;;;;;;7786466;22;20007;-67
2022/02/24 06:28:23;;;;;;;1.50;0.50;;;18.60;46.50;;;;;;7787078;22;20427;-67
2022/02/24 06:31:24;;;;;;;1.52;0.60;;;18.60;46.40;;;;;;7787278;22;20381;-65
2022/02/24 06:34:24;;;;;;;1.30;0.60;;;18.60;46.50;;;;;;7786336;22;20008;-66
2022/02/24 06:37:25;;;;;;;0.70;0.45;;;18.60;46.40;;;;;;7786607;22;20494;-66
2022/02/24 06:40:26;;;;;;;1.67;0.60;;;18.60;46.40;;;;;;7787412;22;20004;-67
2022/02/24 06:43:26;;;;;;;1.25;0.70;;;18.60;46.40;;;;;;7776819;22;20455;-67
2022/02/24 06:46:27;;;;;;;1.55;0.80;;;18.60;46.40;;;;;;7786495;22;20415;-66
2022/02/24 06:49:27;;;;;;;0.85;0.50;;;18.60;46.40;;;;;;7787025;22;20011;-66
2022/02/24 06:52:28;;;;;;;1.58;0.77;;;18.60;46.30;;;;;;7786661;22;19999;-66
2022/02/24 06:55:29;;;;;;;1.15;0.57;;;18.60;46.30;;;;;;7786041;22;20000;-66
2022/02/24 06:58:29;;;;;;;1.60;0.63;;;18.60;46.40;;;;;;7786277;22;20015;-66
2022/02/24 07:01:30;;;;;;;1.40;0.68;;;18.60;46.40;;;;;;7787504;22;20007;-66
2022/02/24 07:04:31;;;;;;;1.00;0.80;;;18.60;46.40;;;;;;7760537;22;20056;-67
2022/02/24 07:07:34;;;;;;;2.00;0.70;;;18.60;46.30;;;;;;7747092;23;20490;-67
2022/02/24 07:10:34;;;;;;;1.83;0.75;;;18.60;46.30;;;;;;7738404;23;20004;-66
2022/02/24 07:13:35;;;;;;;1.48;0.70;;;18.60;46.30;;;;;;7749429;23;20066;-66
2022/02/24 07:16:35;;;;;;;2.95;0.80;;;18.70;46.50;;;;;;7747398;23;20057;-66
2022/02/24 07:19:36;;;;;;;1.65;0.80;;;18.70;46.20;;;;;;7748157;23;20030;-66
2022/02/24 07:22:37;;;;;;;1.48;0.70;;;18.70;46.10;;;;;;7721845;23;20058;-67
2022/02/24 07:25:38;;;;;;;1.20;0.77;;;18.70;46.70;;;;;;7749703;23;20083;-66
2022/02/24 07:28:38;;;;;;;1.75;0.70;;;18.70;46.00;;;;;;7750005;23;20012;-67
2022/02/24 07:31:39;;;;;;;1.65;0.70;;;18.80;46.00;;;;;;7750382;23;20127;-66
2022/02/24 07:34:39;;;;;;;1.27;0.77;;;18.80;46.00;;;;;;7747751;23;20008;-66
2022/02/24 07:37:40;;;;;;;1.75;0.80;;;18.80;46.00;;;;;;7746559;23;20016;-66
2022/02/24 07:40:40;;;;;;;2.80;0.80;;;18.80;46.10;;;;;;7747806;23;20432;-67
2022/02/24 07:43:41;;;;;;;1.15;0.68;;;18.80;46.20;;;;;;7747193;23;20053;-65
2022/02/24 07:46:41;;;;;;;5.18;1.00;;;18.80;46.30;;;;;;7747212;23;20004;-66
2022/02/24 07:49:43;;;;;;;2.33;0.70;;;18.70;46.30;;;;;;7748254;23;20079;-66
2022/02/24 07:52:45;;;;;;;1.92;0.60;;;18.70;46.40;;;;;;7747756;23;20027;-66
2022/02/24 07:55:45;;;;;;;2.60;1.00;;;18.70;46.40;;;;;;7746160;23;20398;-66
2022/02/24 07:58:46;;;;;;;1.45;0.80;;;18.70;46.50;;;;;;7747439;23;20000;-66
2022/02/24 08:01:47;;;;;;;2.47;1.02;;;18.70;46.50;;;;;;7746085;23;20019;-67
2022/02/24 08:04:48;;;;;;;1.48;0.80;;;18.70;46.50;;;;;;7738411;23;20015;-64
2022/02/24 08:07:48;;;;;;;2.90;0.80;;;18.70;46.60;;;;;;7738097;23;20037;-64
2022/02/24 08:10:49;;;;;;;3.25;0.73;;;18.70;46.60;;;;;;7746585;23;20004;-66
2022/02/24 08:13:49;;;;;;;2.25;0.60;;;18.70;47.30;;;;;;7747799;23;20004;-64
2022/02/24 08:16:50;;;;;;;1.73;0.60;;;18.70;46.60;;;;;;7746585;23;20016;-65
2022/02/24 08:19:50;;;;;;;3.03;1.45;;;18.70;46.70;;;;;;7747545;23;20000;-65
2022/02/24 08:22:53;;;;;;;7.30;1.98;;;18.60;46.10;;;;;;7747084;23;20000;-65
2022/02/24 08:25:54;;;;;;;3.65;1.70;;;18.60;45.70;;;;;;7746082;23;20011;-65
2022/02/24 08:28:55;;;;;;;4.60;1.50;;;18.60;43.90;;;;;;7747512;23;20305;-67
2022/02/24 08:31:55;;;;;;;5.47;1.98;;;18.60;43.60;;;;;;7746531;23;20400;-64
2022/02/24 08:34:58;;;;;;;6.18;1.75;;;18.60;43.60;;;;;;7746604;23;20493;-65
2022/02/24 08:37:59;;;;;;;4.78;1.67;;;18.60;43.10;;;;;;7746747;23;20062;-65
2022/02/24 08:40:59;;;;;;;7.93;1.88;;;18.60;42.90;;;;;;7747019;23;20431;-65
2022/02/24 08:44:00;;;;;;;7.03;2.10;;;18.60;42.50;;;;;;7746625;23;20336;-65
2022/02/24 08:47:00;;;;;;;6.50;1.58;;;18.50;42.10;;;;;;7719549;23;20424;-64
2022/02/24 08:50:04;;;;;;;8.23;2.17;;;18.50;42.00;;;;;;7746892;23;20030;-65
2022/02/24 08:53:05;;;;;;;6.32;2.03;;;18.50;41.80;;;;;;7747492;23;20004;-63
2022/02/24 08:56:05;;;;;;;8.88;2.33;;;18.50;41.60;;;;;;7745011;23;20008;-65
2022/02/24 08:59:06;;;;;;;8.98;2.65;;;18.50;41.30;;;;;;7746398;23;20362;-65
2022/02/24 09:02:07;;;;;;;5.57;2.20;;;18.50;41.30;;;;;;7746777;23;20015;-65
2022/02/24 09:05:07;;;;;;;7.63;2.30;;;18.50;41.10;;;;;;7746692;23;20030;-65
2022/02/24 09:08:09;;;;;;;8.25;2.80;;;18.50;40.90;;;;;;7745333;23;20091;-65
2022/02/24 09:11:10;;;;;;;9.32;3.70;;;18.50;40.70;;;;;;7746220;23;20378;-65
2022/02/24 09:14:11;;;;;;;11.93;4.03;;;18.50;40.70;;;;;;7746229;23;20400;-65
2022/02/24 09:17:11;;;;;;;10.93;3.83;;;18.50;40.50;;;;;;7745950;23;20091;-65
2022/02/24 09:20:12;;;;;;;8.73;2.92;;;18.50;40.40;;;;;;7747301;23;20313;-65
2022/02/24 09:23:12;;;;;;;8.23;3.42;;;18.50;40.20;;;;;;7747032;23;20237;-65
2022/02/24 09:26:13;;;;;;;8.45;2.65;;;18.50;40.20;;;;;;7745763;23;20471;-65
2022/02/24 09:29:14;;;;;;;8.98;3.15;;;18.50;40.30;;;;;;7746346;23;20383;-65
2022/02/24 09:32:14;;;;;;;11.70;2.92;;;18.50;39.90;;;;;;7746084;23;20062;-66
2022/02/24 09:35:16;;;;;;;7.30;2.80;;;18.50;40.40;;;;;;7746196;23;20346;-65
2022/02/24 09:38:17;;;;;;;6.63;2.63;;;18.50;40.00;;;;;;7747136;23;20095;-65
2022/02/24 09:41:19;;;;;;;7.97;2.67;;;18.40;39.70;;;;;;7746470;23;20000;-65
2022/02/24 09:44:19;;;;;;;9.32;2.90;;;18.40;39.90;;;;;;7746458;23;20004;-65
2022/02/24 09:47:20;;;;;;;9.10;2.72;;;18.50;39.80;;;;;;7718932;23;20008;-65
2022/02/24 09:50:23;;;;;;;12.85;2.97;;;18.40;39.70;;;;;;7747716;23;20035;-65
2022/02/24 09:53:26;;;;;;;7.22;2.42;;;18.40;39.50;;;;;;7746549;23;20004;-65
2022/02/24 09:56:30;;;;;;;7.78;2.30;;;18.40;39.50;;;;;;7745841;23;20082;-65
2022/02/24 09:59:31;;;;;;;6.88;2.53;;;18.40;39.50;;;;;;7746470;23;20011;-65
2022/02/24 10:02:31;;;;;;;9.90;2.17;;;18.40;39.60;;;;;;7749137;23;20344;-66
2022/02/24 10:05:44;;;;;;;6.82;2.55;;;18.40;40.20;;;;;;7748154;23;20046;-65
2022/02/24 10:08:47;;;;;;;9.23;2.60;;;18.40;40.30;;;;;;7749199;23;20004;-65
2022/02/24 10:11:47;;;;;;;8.52;2.58;;;18.40;39.40;;;;;;7748743;23;20328;-65
2022/02/24 10:14:48;;;;;;;6.32;2.03;;;18.40;39.50;;;;;;7747628;23;20004;-65
2022/02/24 10:18:13;;;;;;;3.75;1.83;;;18.50;39.70;;;;;;7748230;23;20340;-65
2022/02/24 10:21:17;;;;;;;8.77;1.88;;;18.50;40.00;;;;;;7748537;23;20008;-65
2022/02/24 10:24:24;;;;;;;5.75;2.15;;;18.50;40.20;;;;;;7746649;23;20451;-65
2022/02/24 10:27:31;;;;;;;14.07;2.10;;;18.50;40.40;;;;;;7746997;23;20075;-65
2022/02/24 10:30:32;;;;;;;5.40;1.85;;;18.50;40.70;;;;;;7748821;23;20022;-65
2022/02/24 10:33:33;;;;;;;6.20;2.38;;;18.50;40.90;;;;;;7747927;23;20087;-65
2022/02/24 10:36:36;;;;;;;4.40;1.95;;;18.50;41.00;;;;;;7748374;23;20012;-65
2022/02/24 10:39:36;;;;;;;6.85;1.60;;;18.50;41.30;;;;;;7749202;23;20114;-65
2022/02/24 10:42:37;;;;;;;7.32;2.33;;;18.50;41.50;;;;;;7748965;23;20435;-65
2022/02/24 10:45:39;;;;;;;7.22;2.08;;;18.50;41.80;;;;;;7747579;23;20061;-65
2022/02/24 10:48:54;;;;;;;12.10;1.95;;;18.50;41.80;;;;;;7748542;23;20074;-64
2022/02/24 10:52:20;;;;;;;9.60;2.42;;;18.50;41.90;;;;;;7748203;23;20028;-64
2022/02/24 10:55:20;;;;;;;9.98;2.03;;;18.50;42.10;;;;;;7747772;23;20027;-65
2022/02/24 10:58:22;;;;;;;7.35;1.90;;;18.50;42.10;;;;;;7748111;23;20138;-65
2022/02/24 11:01:28;;;;;;;13.18;2.20;;;18.50;42.20;;;;;;7748271;23;20339;-65
2022/02/24 11:04:29;;;;;;;10.10;2.25;;;18.50;42.20;;;;;;7748370;23;20000;-64
2022/02/24 11:07:31;;;;;;;7.28;1.80;;;18.50;42.20;;;;;;7747994;23;20012;-65
2022/02/24 11:10:33;;;;;;;6.78;1.60;;;18.50;42.40;;;;;;7747288;23;20328;-65
2022/02/24 11:13:35;;;;;;;4.57;1.55;;;18.50;42.40;;;;;;7748472;23;20031;-65
2022/02/24 11:16:36;;;;;;;2.53;1.33;;;18.50;42.40;;;;;;7747419;23;20096;-64
2022/02/24 11:19:38;;;;;;;4.55;1.17;;;18.50;42.50;;;;;;7748444;23;20327;-65
2022/02/24 11:22:39;;;;;;;4.55;1.40;;;18.50;42.60;;;;;;7748267;23;20027;-64
2022/02/24 11:26:02;;;;;;;3.35;1.20;;;18.50;42.70;;;;;;7746831;23;20557;-65
2022/02/24 11:29:23;;;;;;;2.95;1.27;;;18.50;42.70;;;;;;7747116;23;20677;-65
2022/02/24 11:32:23;;;;;;;4.10;1.50;;;18.50;42.70;;;;;;7747668;23;20004;-64
2022/02/24 11:35:25;;;;;;;2.85;1.27;;;18.50;42.70;;;;;;7720756;23;20004;-65
2022/02/24 11:38:26;;;;;;;9.73;1.50;;;18.50;42.70;;;;;;7747839;23;20344;-65
2022/02/24 11:41:26;;;;;;;6.22;1.77;;;18.50;42.90;;;;;;7748498;23;20003;-65
2022/02/24 11:44:40;;;;;;;5.22;1.23;;;18.50;42.90;;;;;;7746856;23;20478;-65
2022/02/24 11:48:04;;;;;;;3.15;1.38;;;18.50;43.00;;;;;;7747270;23;20073;-65
2022/02/24 11:51:15;;;;;;;3.55;1.50;;;18.50;43.10;;;;;;7747736;23;20000;-65
2022/02/24 11:54:36;;;;;;;4.82;1.20;;;18.50;43.30;;;;;;7747381;23;20008;-64
2022/02/24 11:57:39;;;;;;;4.22;1.73;;;18.50;43.40;;;;;;7746642;23;20016;-65
2022/02/24 12:01:09;;;;;;;2.65;1.35;;;18.50;43.50;;;;;;7747514;23;20082;-65
2022/02/24 12:04:29;;;;;;;5.35;1.48;;;18.50;43.60;;;;;;7747848;23;20026;-65
2022/02/24 12:07:29;;;;;;;6.47;2.00;;;18.50;43.10;;;;;;7746414;23;20023;-65
2022/02/24 12:10:56;;;;;;;5.60;1.92;;;18.50;42.10;;;;;;7720233;23;20014;-66
2022/02/24 12:13:57;;;;;;;7.90;2.47;;;18.50;41.70;;;;;;7741496;23;20039;-64
2022/02/24 12:17:04;;;;;;;8.45;2.30;;;18.50;41.30;;;;;;7746532;23;20344;-64
2022/02/24 12:20:23;;;;;;;10.27;3.30;;;18.50;41.10;;;;;;7747408;23;20008;-65
2022/02/24 12:23:27;;;;;;;11.93;5.10;;;18.50;40.90;;;;;;7746657;23;20470;-64
2022/02/24 12:26:49;;;;;;;14.38;5.13;;;18.50;40.70;;;;;;7745481;23;20428;-64
2022/02/24 12:30:14;;;;;;;9.88;3.75;;;18.40;40.60;;;;;;7747407;23;20000;-65
2022/02/24 12:33:16;;;;;;;8.85;3.80;;;18.40;40.50;;;;;;7746033;23;20043;-64
2022/02/24 12:36:19;;;;;;;12.10;3.83;;;18.40;40.30;;;;;;7746315;23;20061;-65
2022/02/24 12:39:21;;;;;;;17.27;3.90;;;18.40;40.60;;;;;;7747486;23;20027;-65
2022/02/24 12:42:21;;;;;;;11.57;3.90;;;18.40;40.30;;;;;;7747090;23;20000;-65
2022/02/24 12:45:23;;;;;;;11.60;3.75;;;18.40;41.10;;;;;;7735532;23;20004;-65
2022/02/24 12:48:23;;;;;;;13.63;3.72;;;18.40;40.30;;;;;;7747016;23;20008;-65
2022/02/24 12:51:24;;;;;;;8.98;3.20;;;18.40;40.70;;;;;;7747236;23;20011;-65
2022/02/24 12:54:26;;;;;;;14.88;3.65;;;18.40;40.40;;;;;;7746270;23;20595;-65
2022/02/24 12:57:27;;;;;;;9.93;2.83;;;18.40;40.50;;;;;;7746802;23;20019;-65
2022/02/24 13:00:37;;;;;;;9.60;2.60;;;18.40;40.70;;;;;;7746685;23;20008;-65
2022/02/24 13:03:37;;;;;;;6.20;2.85;;;18.40;40.20;;;;;;7747434;23;20008;-64
2022/02/24 13:06:39;;;;;;;8.55;2.88;;;18.40;40.50;;;;;;7745969;23;20379;-64
2022/02/24 13:09:46;;;;;;;8.45;2.78;;;18.40;40.30;;;;;;7746367;23;20062;-64
2022/02/24 13:12:47;;;;;;;10.02;3.30;;;18.40;40.70;;;;;;7747074;23;20004;-64
2022/02/24 13:15:47;;;;;;;9.20;3.17;;;18.40;40.80;;;;;;7744887;23;20018;-65
2022/02/24 13:18:50;;;;;;;6.90;2.53;;;18.40;40.60;;;;;;7747631;23;20004;-64
2022/02/24 13:21:56;;;;;;;9.00;2.55;;;18.40;40.60;;;;;;7746345;23;20027;-63
2022/02/24 13:24:56;;;;;;;9.50;3.15;;;18.40;40.60;;;;;;7718267;23;20336;-64
2022/02/24 13:27:58;;;;;;;10.60;2.90;;;18.40;40.70;;;;;;7745994;23;20004;-64
2022/02/24 13:31:01;;;;;;;11.00;2.72;;;18.40;40.60;;;;;;7746929;23;20306;-65
2022/02/24 13:34:16;;;;;;;10.68;2.60;;;18.40;40.50;;;;;;7748073;23;20011;-64
2022/02/24 13:37:16;;;;;;;5.73;2.67;;;18.40;40.20;;;;;;7748291;23;20438;-65
2022/02/24 13:40:17;;;;;;;19.50;2.83;;;18.40;40.60;;;;;;7749464;23;20074;-65
2022/02/24 13:43:18;;;;;;;9.52;3.03;;;18.40;40.60;;;;;;7748807;23;20019;-65
2022/02/24 13:46:18;;;;;;;11.18;3.17;;;18.40;40.40;;;;;;7748729;23;20000;-65
2022/02/24 13:49:19;;;;;;;9.07;3.08;;;18.40;40.30;;;;;;7749491;23;20012;-65
2022/02/24 13:52:32;;;;;;;11.70;2.85;;;18.40;39.70;;;;;;7750156;23;20009;-65
2022/02/24 13:55:33;;;;;;;8.73;2.90;;;18.40;39.80;;;;;;7747902;23;20031;-65
2022/02/24 13:58:36;;;;;;;7.43;2.65;;;18.40;40.00;;;;;;7748789;23;20407;-65
2022/02/24 14:01:39;;;;;;;8.73;2.85;;;18.40;40.20;;;;;;7722273;23;20008;-65
2022/02/24 14:04:42;;;;;;;7.97;2.28;;;18.40;40.40;;;;;;7748579;23;20031;-65
2022/02/24 14:07:59;;;;;;;5.85;2.25;;;18.40;40.60;;;;;;7747061;23;20466;-63
2022/02/24 14:11:09;;;;;;;4.65;2.15;;;18.40;40.70;;;;;;7748100;23;20063;-65
2022/02/24 14:14:09;;;;;;;9.43;2.47;;;18.40;41.00;;;;;;7749215;23;20416;-65
2022/02/24 14:17:10;;;;;;;12.70;2.45;;;18.40;41.00;;;;;;7748279;23;20073;-66
2022/02/24 14:20:24;;;;;;;6.45;2.05;;;18.40;40.70;;;;;;7749417;23;20004;-65
2022/02/24 14:23:24;;;;;;;8.52;2.17;;;18.40;40.50;;;;;;7748105;23;20008;-65
2022/02/24 14:26:25;;;;;;;6.97;1.92;;;18.40;40.20;;;;;;7746402;23;20004;-65
2022/02/24 14:29:26;;;;;;;13.82;2.65;;;18.40;40.20;;;;;;7748658;23;20011;-65
2022/02/24 14:32:26;;;;;;;12.25;2.40;;;18.40;40.10;;;;;;7748482;23;20278;-65
2022/02/24 14:35:27;;;;;;;5.47;2.05;;;18.40;40.10;;;;;;7748219;23;20331;-65
2022/02/24 14:38:27;;;;;;;8.90;2.17;;;18.40;40.40;;;;;;7748268;23;20012;-65
2022/02/24 14:41:28;;;;;;;4.80;1.70;;;18.40;40.60;;;;;;7748642;23;20034;-65
2022/02/24 14:44:29;;;;;;;5.90;2.10;;;18.40;40.90;;;;;;7747518;23;20004;-66
2022/02/24 14:47:29;;;;;;;5.63;1.67;;;18.40;41.00;;;;;;7748238;23;20503;-65
2022/02/24 14:50:30;;;;;;;5.72;2.20;;;18.40;41.20;;;;;;7748342;23;20012;-65
2022/02/24 14:53:31;;;;;;;5.63;2.03;;;18.40;41.30;;;;;;7748664;23;20071;-66
2022/02/24 14:56:31;;;;;;;7.25;2.10;;;18.40;41.50;;;;;;7747872;23;20251;-65
2022/02/24 14:59:32;;;;;;;4.85;1.60;;;18.40;41.60;;;;;;7747894;23;20436;-65
2022/02/24 15:02:33;;;;;;;8.23;2.63;;;18.40;41.70;;;;;;7748996;23;20016;-65
2022/02/24 15:05:34;;;;;;;8.55;2.40;;;18.40;41.50;;;;;;7747319;23;20466;-65
2022/02/24 15:08:34;;;;;;;8.15;2.03;;;18.40;41.10;;;;;;7748443;23;20329;-65
2022/02/24 15:11:35;;;;;;;8.27;2.58;;;18.40;41.10;;;;;;7747913;23;20008;-65
2022/02/24 15:14:38;;;;;;;5.63;2.10;;;18.40;41.20;;;;;;7731912;23;20004;-65
2022/02/24 15:17:39;;;;;;;7.95;2.05;;;18.40;41.40;;;;;;7747676;23;20008;-65
2022/02/24 15:20:40;;;;;;;3.97;2.08;;;18.40;41.50;;;;;;7748389;23;20019;-66
2022/02/24 15:23:41;;;;;;;7.78;2.15;;;18.40;41.70;;;;;;7748196;23;20096;-65
2022/02/24 15:26:41;;;;;;;6.38;2.10;;;18.40;41.90;;;;;;7747244;23;20416;-65
2022/02/24 15:29:42;;;;;;;5.60;2.00;;;18.40;41.70;;;;;;7748271;23;20058;-65
2022/02/24 15:32:43;;;;;;;7.38;2.50;;;18.40;41.30;;;;;;7747267;23;20054;-65
2022/02/24 15:35:44;;;;;;;8.27;2.15;;;18.40;41.30;;;;;;7747751;23;20058;-65
2022/02/24 15:38:44;;;;;;;7.97;2.10;;;18.40;40.90;;;;;;7747738;23;20187;-65
2022/02/24 15:41:45;;;;;;;10.50;3.45;;;18.40;40.70;;;;;;7748395;23;19996;-65
2022/02/24 15:44:46;;;;;;;10.45;2.70;;;18.40;40.70;;;;;;7747614;23;20008;-65
2022/02/24 15:47:47;;;;;;;9.15;2.80;;;18.40;40.50;;;;;;7747856;23;20004;-65